createdAt,value
2018-04-21T00:00:19.732Z,13.50
2018-04-21T00:01:19.977Z,13.60
2018-04-21T00:02:20.218Z,13.00
2018-04-21T00:03:20.460Z,13.10
2018-04-21T00:04:20.705Z,13.00
2018-04-21T00:05:20.947Z,11.60
2018-04-21T00:06:21.192Z,13.00
2018-04-21T00:07:21.432Z,12.10
2018-04-21T00:08:21.673Z,12.70
2018-04-21T00:09:21.918Z,12.50
2018-04-21T00:10:22.161Z,13.70
2018-04-21T00:11:22.403Z,13.70
2018-04-21T00:12:22.646Z,13.30
2018-04-21T00:13:22.889Z,14.70
2018-04-21T00:14:23.132Z,14.10
2018-04-21T00:15:23.378Z,14.40
2018-04-21T00:16:23.619Z,14.50
2018-04-21T00:17:23.864Z,14.50
2018-04-21T00:18:24.108Z,13.10
2018-04-21T00:19:24.350Z,13.70
2018-04-21T00:20:24.594Z,13.90
2018-04-21T00:21:24.841Z,13.80
2018-04-21T00:22:25.085Z,13.40
2018-04-21T00:23:25.323Z,12.70
2018-04-21T00:24:25.565Z,14.20
2018-04-21T00:25:25.811Z,13.50
2018-04-21T00:26:26.054Z,13.70
2018-04-21T00:27:26.299Z,13.30
2018-04-21T00:28:26.543Z,13.60
2018-04-21T00:29:26.786Z,13.50
2018-04-21T00:30:27.026Z,13.70
2018-04-21T00:31:27.269Z,13.10
2018-04-21T00:32:27.511Z,13.90
2018-04-21T00:33:27.755Z,13.80
2018-04-21T00:34:27.997Z,14.10
2018-04-21T00:35:28.241Z,14.50
2018-04-21T00:36:28.480Z,16.30
2018-04-21T00:37:28.726Z,14.40
2018-04-21T00:38:28.967Z,14.50
2018-04-21T00:39:29.214Z,14.80
2018-04-21T00:40:29.455Z,14.50
2018-04-21T00:41:29.698Z,15.10
2018-04-21T00:42:29.943Z,14.90
2018-04-21T00:43:30.187Z,15.00
2018-04-21T00:44:30.429Z,15.70
2018-04-21T00:45:30.672Z,14.90
2018-04-21T00:46:30.917Z,14.50
2018-04-21T00:47:31.159Z,14.60
2018-04-21T00:48:31.402Z,15.30
2018-04-21T00:49:31.645Z,14.50
2018-04-21T00:50:31.891Z,15.90
2018-04-21T00:51:32.133Z,15.50
2018-04-21T00:52:32.372Z,15.50
2018-04-21T00:53:32.614Z,15.30
2018-04-21T00:54:32.856Z,14.00
2018-04-21T00:55:33.099Z,14.30
2018-04-21T00:56:33.342Z,14.40
2018-04-21T00:57:33.583Z,14.70
2018-04-21T00:58:33.825Z,16.40
2018-04-21T00:59:34.067Z,16.10
2018-04-21T01:00:34.311Z,16.00
2018-04-21T01:01:34.553Z,14.80
2018-04-21T01:02:34.795Z,14.40
2018-04-21T01:03:35.036Z,14.10
2018-04-21T01:04:35.280Z,15.20
2018-04-21T01:05:35.527Z,16.10
2018-04-21T01:06:35.765Z,15.90
2018-04-21T01:07:36.005Z,16.00
2018-04-21T01:08:36.247Z,16.70
2018-04-21T01:09:36.491Z,16.80
2018-04-21T01:10:36.735Z,17.10
2018-04-21T01:11:36.975Z,16.20
2018-04-21T01:12:37.217Z,17.10
2018-04-21T01:13:37.457Z,15.10
2018-04-21T01:14:37.701Z,16.70
2018-04-21T01:15:37.940Z,17.00
2018-04-21T01:16:38.182Z,16.70
2018-04-21T01:17:38.423Z,15.30
2018-04-21T01:18:38.671Z,16.00
2018-04-21T01:19:38.911Z,29.40
2018-04-21T01:20:39.151Z,86.40
2018-04-21T01:21:39.394Z,87.40
2018-04-21T01:22:39.643Z,63.00
2018-04-21T01:23:39.885Z,37.40
2018-04-21T01:24:40.127Z,22.00
2018-04-21T01:25:40.367Z,19.40
2018-04-21T01:26:40.610Z,19.50
2018-04-21T01:27:40.853Z,21.50
2018-04-21T01:28:41.095Z,20.00
2018-04-21T01:29:41.339Z,19.70
2018-04-21T01:30:41.579Z,20.20
2018-04-21T01:31:41.821Z,18.70
2018-04-21T01:32:42.062Z,19.00
2018-04-21T01:33:42.309Z,19.50
2018-04-21T01:34:42.547Z,18.70
2018-04-21T01:35:42.787Z,19.30
2018-04-21T01:36:43.032Z,19.90
2018-04-21T01:37:43.272Z,19.30
2018-04-21T01:38:43.514Z,18.70
2018-04-21T01:39:43.758Z,21.30
2018-04-21T01:40:43.998Z,19.10
2018-04-21T01:41:44.240Z,19.10
2018-04-21T01:42:44.485Z,20.00
2018-04-21T01:43:44.726Z,20.20
2018-04-21T01:44:44.970Z,19.10
2018-04-21T01:45:45.210Z,18.90
2018-04-21T01:46:45.451Z,16.30
2018-04-21T01:47:45.692Z,15.60
2018-04-21T01:48:45.933Z,15.30
2018-04-21T01:49:46.175Z,17.00
2018-04-21T01:50:46.416Z,18.80
2018-04-21T01:51:46.655Z,17.70
2018-04-21T01:52:46.897Z,16.90
2018-04-21T01:53:47.138Z,17.40
2018-04-21T01:54:47.387Z,18.50
2018-04-21T01:55:47.624Z,18.80
2018-04-21T01:56:47.868Z,20.90
2018-04-21T01:57:48.107Z,19.20
2018-04-21T01:58:48.349Z,19.90
2018-04-21T01:59:48.591Z,18.90
2018-04-21T02:00:48.833Z,18.10
2018-04-21T02:01:49.076Z,18.30
2018-04-21T02:02:49.317Z,17.70
2018-04-21T02:03:49.558Z,18.70
2018-04-21T02:04:49.802Z,20.10
2018-04-21T02:05:50.043Z,21.00
2018-04-21T02:06:50.283Z,20.00
2018-04-21T02:07:50.520Z,20.50
2018-04-21T02:08:50.759Z,20.80
2018-04-21T02:09:51.003Z,20.90
2018-04-21T02:10:51.242Z,20.40
2018-04-21T02:11:51.486Z,21.40
2018-04-21T02:12:51.730Z,20.80
2018-04-21T02:13:51.971Z,21.90
2018-04-21T02:14:52.211Z,21.60
2018-04-21T02:15:52.452Z,20.70
2018-04-21T02:16:52.693Z,21.00
2018-04-21T02:17:52.934Z,22.80
2018-04-21T02:18:53.178Z,22.10
2018-04-21T02:19:53.423Z,23.80
2018-04-21T02:20:53.660Z,22.20
2018-04-21T02:21:53.900Z,24.30
2018-04-21T02:22:54.141Z,24.00
2018-04-21T02:23:54.381Z,21.00
2018-04-21T02:24:54.621Z,19.60
2018-04-21T02:25:54.865Z,19.60
2018-04-21T02:26:55.104Z,19.40
2018-04-21T02:27:55.345Z,20.30
2018-04-21T02:28:55.588Z,20.10
2018-04-21T02:29:55.827Z,21.30
2018-04-21T02:30:56.073Z,20.60
2018-04-21T02:31:56.312Z,20.60
2018-04-21T02:32:56.553Z,21.10
2018-04-21T02:33:56.797Z,21.70
2018-04-21T02:34:57.037Z,21.80
2018-04-21T02:35:57.277Z,19.20
2018-04-21T02:36:57.517Z,20.90
2018-04-21T02:37:57.758Z,20.00
2018-04-21T02:38:57.999Z,21.70
2018-04-21T02:39:58.239Z,20.50
2018-04-21T02:40:58.487Z,21.30
2018-04-21T02:41:58.729Z,21.00
2018-04-21T02:42:58.964Z,19.80
2018-04-21T02:43:59.206Z,19.90
2018-04-21T02:44:59.444Z,19.00
2018-04-21T02:45:59.685Z,20.00
2018-04-21T02:46:59.924Z,21.50
2018-04-21T02:48:00.167Z,22.20
2018-04-21T02:49:00.409Z,21.80
2018-04-21T02:50:00.647Z,23.20
2018-04-21T02:51:00.890Z,21.80
2018-04-21T02:52:01.138Z,21.10
2018-04-21T02:53:01.371Z,22.20
2018-04-21T02:54:01.611Z,22.40
2018-04-21T02:55:01.854Z,21.50
2018-04-21T02:56:02.096Z,23.00
2018-04-21T02:57:02.330Z,21.80
2018-04-21T02:58:02.569Z,21.60
2018-04-21T02:59:02.811Z,20.60
2018-04-21T03:00:03.056Z,21.70
2018-04-21T03:01:03.295Z,19.50
2018-04-21T03:02:03.539Z,18.80
2018-04-21T03:03:03.781Z,19.40
2018-04-21T03:04:04.022Z,18.20
2018-04-21T03:05:04.258Z,18.20
2018-04-21T03:06:04.498Z,19.40
2018-04-21T03:07:04.739Z,24.60
2018-04-21T03:08:04.977Z,25.00
2018-04-21T03:09:05.216Z,24.30
2018-04-21T03:10:05.458Z,25.40
2018-04-21T03:11:05.699Z,23.60
2018-04-21T03:12:05.942Z,23.90
2018-04-21T03:13:06.181Z,23.60
2018-04-21T03:14:06.419Z,23.40
2018-04-21T03:15:06.657Z,23.00
2018-04-21T03:16:06.895Z,23.50
2018-04-21T03:17:07.138Z,21.30
2018-04-21T03:18:07.377Z,22.20
2018-04-21T03:19:07.617Z,21.70
2018-04-21T03:20:07.857Z,19.90
2018-04-21T03:21:08.095Z,19.70
2018-04-21T03:22:08.336Z,18.60
2018-04-21T03:23:08.578Z,19.80
2018-04-21T03:24:08.817Z,19.30
2018-04-21T03:25:09.055Z,19.90
2018-04-21T03:26:09.293Z,19.60
2018-04-21T03:27:09.537Z,19.50
2018-04-21T03:28:09.783Z,20.10
2018-04-21T03:29:10.023Z,20.50
2018-04-21T03:30:10.267Z,21.70
2018-04-21T03:31:10.509Z,21.90
2018-04-21T03:32:10.749Z,19.90
2018-04-21T03:33:10.991Z,19.20
2018-04-21T03:34:11.232Z,19.50
2018-04-21T03:35:11.471Z,20.40
2018-04-21T03:36:11.719Z,19.60
2018-04-21T03:37:12.024Z,16.50
2018-04-21T03:38:12.266Z,16.90
2018-04-21T03:39:12.513Z,17.60
2018-04-21T03:40:12.756Z,18.20
2018-04-21T03:41:13.109Z,20.00
2018-04-21T03:42:13.689Z,20.90
2018-04-21T03:43:13.702Z,21.20
2018-04-21T03:44:13.955Z,22.90
2018-04-21T03:45:14.202Z,24.80
2018-04-21T03:46:14.449Z,23.10
2018-04-21T03:47:14.688Z,23.60
2018-04-21T03:48:14.926Z,25.00
2018-04-21T03:49:15.173Z,24.20
2018-04-21T03:50:15.415Z,20.40
2018-04-21T03:51:15.661Z,20.80
2018-04-21T03:52:15.901Z,21.00
2018-04-21T03:53:16.144Z,21.00
2018-04-21T03:54:16.393Z,20.40
2018-04-21T03:55:16.629Z,20.00
2018-04-21T03:56:16.874Z,22.70
2018-04-21T03:57:17.207Z,25.10
2018-04-21T03:58:17.409Z,23.50
2018-04-21T03:59:17.662Z,22.70
2018-04-21T04:00:17.905Z,24.60
2018-04-21T04:01:18.151Z,24.90
2018-04-21T04:02:18.394Z,25.50
2018-04-21T04:03:18.636Z,22.90
2018-04-21T04:04:18.877Z,25.30
2018-04-21T04:05:19.120Z,24.00
2018-04-21T04:06:19.367Z,26.10
2018-04-21T04:07:19.608Z,25.90
2018-04-21T04:08:19.857Z,25.90
2018-04-21T04:09:20.097Z,24.00
2018-04-21T04:10:20.338Z,23.20
2018-04-21T04:11:20.579Z,26.20
2018-04-21T04:12:20.828Z,25.60
2018-04-21T04:13:21.066Z,27.30
2018-04-21T04:14:21.306Z,25.50
2018-04-21T04:15:21.548Z,24.90
2018-04-21T04:16:21.790Z,20.60
2018-04-21T04:17:22.031Z,23.60
2018-04-21T04:18:22.273Z,24.20
2018-04-21T04:19:22.514Z,24.00
2018-04-21T04:20:22.762Z,23.70
2018-04-21T04:21:23.000Z,24.80
2018-04-21T04:22:23.249Z,25.40
2018-04-21T04:23:23.493Z,25.60
2018-04-21T04:24:23.733Z,23.90
2018-04-21T04:25:23.978Z,25.40
2018-04-21T04:26:24.224Z,24.30
2018-04-21T04:27:24.465Z,23.60
2018-04-21T04:28:24.710Z,22.80
2018-04-21T04:29:24.956Z,22.70
2018-04-21T04:30:25.202Z,22.80
2018-04-21T04:31:25.445Z,23.80
2018-04-21T04:32:25.690Z,23.30
2018-04-21T04:33:25.931Z,25.20
2018-04-21T04:34:26.174Z,26.50
2018-04-21T04:35:26.416Z,23.00
2018-04-21T04:36:26.661Z,21.50
2018-04-21T04:37:26.906Z,22.70
2018-04-21T04:38:27.154Z,22.90
2018-04-21T04:39:27.386Z,22.00
2018-04-21T04:40:27.637Z,24.70
2018-04-21T04:41:27.876Z,24.40
2018-04-21T04:42:28.120Z,24.90
2018-04-21T04:43:28.360Z,26.40
2018-04-21T04:44:28.601Z,26.20
2018-04-21T04:45:28.839Z,28.50
2018-04-21T04:46:29.090Z,28.60
2018-04-21T04:47:29.327Z,27.50
2018-04-21T04:48:29.566Z,28.10
2018-04-21T04:49:29.812Z,27.70
2018-04-21T04:50:30.047Z,26.50
2018-04-21T04:51:30.292Z,24.20
2018-04-21T04:52:30.535Z,23.90
2018-04-21T04:53:30.779Z,22.50
2018-04-21T04:54:31.029Z,23.20
2018-04-21T04:55:31.270Z,21.60
2018-04-21T04:56:31.514Z,24.20
2018-04-21T04:57:31.758Z,25.00
2018-04-21T04:58:32.001Z,24.40
2018-04-21T04:59:32.244Z,23.60
2018-04-21T05:00:32.490Z,23.40
2018-04-21T05:01:32.734Z,24.00
2018-04-21T05:02:32.980Z,25.20
2018-04-21T05:03:33.220Z,23.40
2018-04-21T05:04:33.453Z,23.50
2018-04-21T05:05:33.713Z,23.60
2018-04-21T05:06:33.960Z,23.80
2018-04-21T05:07:34.203Z,22.40
2018-04-21T05:08:34.446Z,22.70
2018-04-21T05:09:34.691Z,23.90
2018-04-21T05:10:34.936Z,22.70
2018-04-21T05:11:35.184Z,23.00
2018-04-21T05:12:35.432Z,21.50
2018-04-21T05:13:35.672Z,22.40
2018-04-21T05:14:35.918Z,22.10
2018-04-21T05:15:36.161Z,23.40
2018-04-21T05:16:36.403Z,23.70
2018-04-21T05:17:36.648Z,22.80
2018-04-21T05:18:36.895Z,22.10
2018-04-21T05:19:37.137Z,22.00
2018-04-21T05:20:37.386Z,22.60
2018-04-21T05:21:37.617Z,23.10
2018-04-21T05:22:37.861Z,22.90
2018-04-21T05:23:38.108Z,21.70
2018-04-21T05:24:38.350Z,22.40
2018-04-21T05:25:38.595Z,22.90
2018-04-21T05:26:38.875Z,21.30
2018-04-21T05:27:39.132Z,21.10
2018-04-21T05:28:39.366Z,20.40
2018-04-21T05:29:39.610Z,20.00
2018-04-21T05:30:39.859Z,19.50
2018-04-21T05:31:40.107Z,19.40
2018-04-21T05:32:40.348Z,19.30
2018-04-21T05:33:40.594Z,18.60
2018-04-21T05:34:40.844Z,17.60
2018-04-21T05:35:41.077Z,17.70
2018-04-21T05:36:41.329Z,16.40
2018-04-21T05:37:41.565Z,17.40
2018-04-21T05:38:41.807Z,16.90
2018-04-21T05:39:42.054Z,16.70
2018-04-21T05:40:42.294Z,17.50
2018-04-21T05:41:42.575Z,17.90
2018-04-21T05:42:42.829Z,19.40
2018-04-21T05:43:43.069Z,19.20
2018-04-21T05:44:43.341Z,17.60
2018-04-21T05:45:43.571Z,18.20
2018-04-21T05:46:43.804Z,18.60
2018-04-21T05:47:44.049Z,17.50
2018-04-21T05:48:44.292Z,18.60
2018-04-21T05:49:44.532Z,17.90
2018-04-21T05:50:44.778Z,18.30
2018-04-21T05:51:45.026Z,18.00
2018-04-21T05:52:45.269Z,16.80
2018-04-21T05:53:45.512Z,16.70
2018-04-21T05:54:45.753Z,17.20
2018-04-21T05:55:45.999Z,17.00
2018-04-21T05:56:46.244Z,15.40
2018-04-21T05:57:46.516Z,17.10
2018-04-21T05:58:46.732Z,16.20
2018-04-21T05:59:46.967Z,15.80
2018-04-21T06:00:47.204Z,16.00
2018-04-21T06:01:47.453Z,15.90
2018-04-21T06:02:47.697Z,15.40
2018-04-21T06:03:47.937Z,15.90
2018-04-21T06:04:48.186Z,16.40
2018-04-21T06:05:48.433Z,16.10
2018-04-21T06:06:48.660Z,15.40
2018-04-21T06:07:48.907Z,15.30
2018-04-21T06:08:49.153Z,15.10
2018-04-21T06:09:49.398Z,14.80
2018-04-21T06:10:49.645Z,16.10
2018-04-21T06:11:49.897Z,15.80
2018-04-21T06:12:50.140Z,15.40
2018-04-21T06:13:50.396Z,16.00
2018-04-21T06:14:50.631Z,16.40
2018-04-21T06:15:50.877Z,16.40
2018-04-21T06:16:51.124Z,16.70
2018-04-21T06:17:51.362Z,16.30
2018-04-21T06:18:51.607Z,15.90
2018-04-21T06:19:51.852Z,17.00
2018-04-21T06:20:52.097Z,16.50
2018-04-21T06:21:52.346Z,15.80
2018-04-21T06:22:52.611Z,16.70
2018-04-21T06:23:52.842Z,17.80
2018-04-21T06:24:53.088Z,16.20
2018-04-21T06:25:53.339Z,16.00
2018-04-21T06:26:53.584Z,17.00
2018-04-21T06:27:53.830Z,15.90
2018-04-21T06:28:54.075Z,15.70
2018-04-21T06:29:54.328Z,16.30
2018-04-21T06:30:54.561Z,15.90
2018-04-21T06:31:54.846Z,15.70
2018-04-21T06:32:55.094Z,15.30
2018-04-21T06:33:55.336Z,15.10
2018-04-21T06:34:55.582Z,15.50
2018-04-21T06:35:55.828Z,15.60
2018-04-21T06:36:56.073Z,15.30
2018-04-21T06:37:56.326Z,15.00
2018-04-21T06:38:56.576Z,15.80
2018-04-21T06:39:56.813Z,15.60
2018-04-21T06:40:57.065Z,14.90
2018-04-21T06:42:04.579Z,14.30
2018-04-21T06:42:57.710Z,14.60
2018-04-21T06:43:57.961Z,14.40
2018-04-21T06:44:58.208Z,15.20
2018-04-21T06:45:58.470Z,15.10
2018-04-21T06:46:58.705Z,15.40
2018-04-21T06:47:58.965Z,15.10
2018-04-21T06:48:59.210Z,14.70
2018-04-21T06:49:59.460Z,15.40
2018-04-21T06:50:59.779Z,15.20
2018-04-21T06:52:00.027Z,15.30
2018-04-21T06:53:00.311Z,14.40
2018-04-21T06:54:00.533Z,15.70
2018-04-21T06:55:00.779Z,15.50
2018-04-21T06:56:01.025Z,15.90
2018-04-21T06:57:01.270Z,15.40
2018-04-21T06:58:01.519Z,15.70
2018-04-21T06:59:01.765Z,15.90
2018-04-21T07:00:02.016Z,15.60
2018-04-21T07:01:02.263Z,15.20
2018-04-21T07:02:02.509Z,15.80
2018-04-21T07:03:02.757Z,15.30
2018-04-21T07:04:03.011Z,15.80
2018-04-21T07:05:03.257Z,15.10
2018-04-21T07:06:03.527Z,15.30
2018-04-21T07:07:03.752Z,15.30
2018-04-21T07:08:04.002Z,15.00
2018-04-21T07:09:04.251Z,14.00
2018-04-21T07:10:04.501Z,14.40
2018-04-21T07:11:04.809Z,14.20
2018-04-21T07:12:05.126Z,15.60
2018-04-21T07:13:05.375Z,15.40
2018-04-21T07:14:05.654Z,15.60
2018-04-21T07:15:05.916Z,15.00
2018-04-21T07:16:06.162Z,15.30
2018-04-21T07:17:06.413Z,15.60
2018-04-21T07:18:06.668Z,15.10
2018-04-21T07:19:06.914Z,15.40
2018-04-21T07:20:07.165Z,14.90
2018-04-21T07:21:07.438Z,14.90
2018-04-21T07:22:07.671Z,14.80
2018-04-21T07:23:07.927Z,14.80
2018-04-21T07:24:08.217Z,15.20
2018-04-21T07:25:08.473Z,14.40
2018-04-21T07:26:08.723Z,14.60
2018-04-21T07:27:09.001Z,14.00
2018-04-21T07:28:09.221Z,14.40
2018-04-21T07:29:09.474Z,14.20
2018-04-21T07:30:09.727Z,13.20
2018-04-21T07:31:09.974Z,13.50
2018-04-21T07:32:10.214Z,14.10
2018-04-21T07:33:10.491Z,13.30
2018-04-21T07:34:10.740Z,13.40
2018-04-21T07:35:10.987Z,15.30
2018-04-21T07:36:11.241Z,13.80
2018-04-21T07:37:11.491Z,15.30
2018-04-21T07:38:11.746Z,14.50
2018-04-21T07:39:11.994Z,14.20
2018-04-21T07:40:12.257Z,14.10
2018-04-21T07:41:12.502Z,14.90
2018-04-21T07:42:12.755Z,14.20
2018-04-21T07:43:13.006Z,15.70
2018-04-21T07:44:13.260Z,15.40
2018-04-21T07:45:13.510Z,15.80
2018-04-21T07:46:13.760Z,15.40
2018-04-21T07:47:14.011Z,15.60
2018-04-21T07:48:14.264Z,16.20
2018-04-21T07:49:14.514Z,14.90
2018-04-21T07:50:14.766Z,15.90
2018-04-21T07:51:15.018Z,17.30
2018-04-21T07:52:15.267Z,16.60
2018-04-21T07:53:15.518Z,16.60
2018-04-21T07:54:15.769Z,17.00
2018-04-21T07:55:16.022Z,17.00
2018-04-21T07:56:16.274Z,18.10
2018-04-21T07:57:16.527Z,18.00
2018-04-21T07:58:16.780Z,17.70
2018-04-21T07:59:17.032Z,18.30
2018-04-21T08:00:17.288Z,17.20
2018-04-21T08:01:17.542Z,18.10
2018-04-21T08:02:17.795Z,17.00
2018-04-21T08:03:18.051Z,17.90
2018-04-21T08:04:18.301Z,18.00
2018-04-21T08:05:18.558Z,18.70
2018-04-21T08:06:18.811Z,17.30
2018-04-21T08:07:19.090Z,17.00
2018-04-21T08:08:19.320Z,18.30
2018-04-21T08:09:19.574Z,18.60
2018-04-21T08:10:19.825Z,18.90
2018-04-21T08:11:20.078Z,19.60
2018-04-21T08:12:20.337Z,18.30
2018-04-21T08:13:20.589Z,17.30
2018-04-21T08:14:20.847Z,16.90
2018-04-21T08:15:21.100Z,18.40
2018-04-21T08:16:21.358Z,17.80
2018-04-21T08:17:21.611Z,18.00
2018-04-21T08:18:21.864Z,17.40
2018-04-21T08:19:22.121Z,21.30
2018-04-21T08:20:22.380Z,18.70
2018-04-21T08:21:22.631Z,17.30
2018-04-21T08:22:22.882Z,17.70
2018-04-21T08:23:23.141Z,16.90
2018-04-21T08:24:23.396Z,16.40
2018-04-21T08:25:23.650Z,17.80
2018-04-21T08:26:23.905Z,17.40
2018-04-21T08:27:24.154Z,17.30
2018-04-21T08:28:24.416Z,16.70
2018-04-21T08:29:24.669Z,16.40
2018-04-21T08:30:24.927Z,17.30
2018-04-21T08:31:25.253Z,17.30
2018-04-21T08:32:25.437Z,16.70
2018-04-21T08:33:25.701Z,16.30
2018-04-21T08:34:25.956Z,16.30
2018-04-21T08:35:26.209Z,15.80
2018-04-21T08:36:26.466Z,16.60
2018-04-21T08:37:26.725Z,16.70
2018-04-21T08:38:26.985Z,17.20
2018-04-21T08:39:27.247Z,17.60
2018-04-21T08:40:27.507Z,16.80
2018-04-21T08:41:27.762Z,17.50
2018-04-21T08:42:28.015Z,17.60
2018-04-21T08:43:28.272Z,16.80
2018-04-21T08:44:28.526Z,16.40
2018-04-21T08:45:28.791Z,16.90
2018-04-21T08:46:29.053Z,17.80
2018-04-21T08:47:29.310Z,16.30
2018-04-21T08:48:29.564Z,16.70
2018-04-21T08:49:29.820Z,16.90
2018-04-21T08:50:30.077Z,16.70
2018-04-21T08:51:30.338Z,18.00
2018-04-21T08:52:30.592Z,18.30
2018-04-21T08:53:30.849Z,17.60
2018-04-21T08:54:31.106Z,17.60
2018-04-21T08:55:31.361Z,18.00
2018-04-21T08:56:31.627Z,16.80
2018-04-21T08:57:31.880Z,17.20
2018-04-21T08:58:32.139Z,17.90
2018-04-21T08:59:32.397Z,17.80
2018-04-21T09:00:32.655Z,17.20
2018-04-21T09:01:32.914Z,16.40
2018-04-21T09:02:33.163Z,17.00
2018-04-21T09:03:33.421Z,16.70
2018-04-21T09:04:33.683Z,17.00
2018-04-21T09:05:33.943Z,16.40
2018-04-21T09:06:34.203Z,16.70
2018-04-21T09:07:34.455Z,15.60
2018-04-21T09:08:34.709Z,16.70
2018-04-21T09:09:34.997Z,17.30
2018-04-21T09:10:35.231Z,16.10
2018-04-21T09:11:35.499Z,17.00
2018-04-21T09:12:35.750Z,16.20
2018-04-21T09:13:36.002Z,16.80
2018-04-21T09:14:36.261Z,16.90
2018-04-21T09:15:36.525Z,15.90
2018-04-21T09:16:36.787Z,16.00
2018-04-21T09:17:37.051Z,17.20
2018-04-21T09:18:37.307Z,15.90
2018-04-21T09:19:37.571Z,16.40
2018-04-21T09:20:37.830Z,16.50
2018-04-21T09:21:38.090Z,16.50
2018-04-21T09:22:38.350Z,16.80
2018-04-21T09:23:38.616Z,16.70
2018-04-21T09:24:38.873Z,18.10
2018-04-21T09:25:39.140Z,16.30
2018-04-21T09:26:39.401Z,16.10
2018-04-21T09:27:39.663Z,15.00
2018-04-21T09:28:39.926Z,15.80
2018-04-21T09:29:40.188Z,15.60
2018-04-21T09:30:40.449Z,16.20
2018-04-21T09:31:40.699Z,15.10
2018-04-21T09:32:40.960Z,15.90
2018-04-21T09:33:41.261Z,15.10
2018-04-21T09:34:41.477Z,15.60
2018-04-21T09:35:41.743Z,16.20
2018-04-21T09:36:42.004Z,15.90
2018-04-21T09:37:42.268Z,15.30
2018-04-21T09:38:42.530Z,15.50
2018-04-21T09:39:42.804Z,14.50
2018-04-21T09:40:43.055Z,14.50
2018-04-21T09:41:43.313Z,16.00
2018-04-21T09:42:43.572Z,14.80
2018-04-21T09:43:43.839Z,15.00
2018-04-21T09:44:44.102Z,15.50
2018-04-21T09:45:44.363Z,14.70
2018-04-21T09:46:44.811Z,15.60
2018-04-21T09:47:44.917Z,14.60
2018-04-21T09:48:45.179Z,14.70
2018-04-21T09:49:45.445Z,14.00
2018-04-21T09:50:45.705Z,14.70
2018-04-21T09:51:45.967Z,14.60
2018-04-21T09:52:46.229Z,14.80
2018-04-21T09:53:46.491Z,14.50
2018-04-21T09:54:46.757Z,14.50
2018-04-21T09:55:47.020Z,14.10
2018-04-21T09:56:47.286Z,14.20
2018-04-21T09:57:47.546Z,14.30
2018-04-21T09:58:47.804Z,14.70
2018-04-21T09:59:48.069Z,15.00
2018-04-21T10:00:48.331Z,14.80
2018-04-21T10:01:48.615Z,14.80
2018-04-21T10:02:48.857Z,14.20
2018-04-21T10:03:49.121Z,14.20
2018-04-21T10:04:49.380Z,14.40
2018-04-21T10:05:49.641Z,14.30
2018-04-21T10:06:49.902Z,14.00
2018-04-21T10:07:50.162Z,14.30
2018-04-21T10:08:50.427Z,13.90
2018-04-21T10:09:50.690Z,14.00
2018-04-21T10:10:50.953Z,14.20
2018-04-21T10:11:51.220Z,13.20
2018-04-21T10:12:51.476Z,13.80
2018-04-21T10:13:51.737Z,14.80
2018-04-21T10:14:52.000Z,14.70
2018-04-21T10:15:52.268Z,14.40
2018-04-21T10:16:52.529Z,14.80
2018-04-21T10:17:52.791Z,13.90
2018-04-21T10:18:53.055Z,13.80
2018-04-21T10:19:53.325Z,15.00
2018-04-21T10:20:53.588Z,14.60
2018-04-21T10:21:53.849Z,15.10
2018-04-21T10:22:54.103Z,15.50
2018-04-21T10:23:54.376Z,14.40
2018-04-21T10:24:54.666Z,14.50
2018-04-21T10:25:54.894Z,13.70
2018-04-21T10:26:55.160Z,15.00
2018-04-21T10:27:55.422Z,13.50
2018-04-21T10:28:55.690Z,13.80
2018-04-21T10:29:55.949Z,14.20
2018-04-21T10:30:56.260Z,13.40
2018-04-21T10:31:56.476Z,13.10
2018-04-21T10:32:56.741Z,14.20
2018-04-21T10:33:57.005Z,13.60
2018-04-21T10:34:57.271Z,14.00
2018-04-21T10:35:57.529Z,13.80
2018-04-21T10:36:57.795Z,12.50
2018-04-21T10:37:58.056Z,13.20
2018-04-21T10:38:58.323Z,13.60
2018-04-21T10:39:58.581Z,12.70
2018-04-21T10:40:58.841Z,13.50
2018-04-21T10:41:59.110Z,13.10
2018-04-21T10:42:59.365Z,14.30
2018-04-21T10:43:59.624Z,13.80
2018-04-21T10:44:59.886Z,12.80
2018-04-21T10:46:00.148Z,12.70
2018-04-21T10:47:00.408Z,12.40
2018-04-21T10:48:00.671Z,13.00
2018-04-21T10:49:00.937Z,12.00
2018-04-21T10:50:01.197Z,11.80
2018-04-21T10:51:01.459Z,12.30
2018-04-21T10:52:01.723Z,11.70
2018-04-21T10:53:01.985Z,12.90
2018-04-21T10:54:02.263Z,12.00
2018-04-21T10:55:02.508Z,11.80
2018-04-21T10:56:02.777Z,11.60
2018-04-21T10:57:03.031Z,11.60
2018-04-21T10:58:03.316Z,12.10
2018-04-21T10:59:03.556Z,11.80
2018-04-21T11:00:03.819Z,12.10
2018-04-21T11:01:04.077Z,11.30
2018-04-21T11:02:04.343Z,11.50
2018-04-21T11:03:04.604Z,11.40
2018-04-21T11:04:04.869Z,11.90
2018-04-21T11:05:05.132Z,11.40
2018-04-21T11:06:05.403Z,12.10
2018-04-21T11:07:05.665Z,10.50
2018-04-21T11:08:05.929Z,10.50
2018-04-21T11:09:06.191Z,10.30
2018-04-21T11:10:06.453Z,10.20
2018-04-21T11:11:06.716Z,8.90
2018-04-21T11:12:06.975Z,8.60
2018-04-21T11:13:07.243Z,9.40
2018-04-21T11:14:07.505Z,9.10
2018-04-21T11:15:07.767Z,10.00
2018-04-21T11:16:08.030Z,9.20
2018-04-21T11:17:08.292Z,9.60
2018-04-21T11:18:08.554Z,9.70
2018-04-21T11:19:08.818Z,10.00
2018-04-21T11:20:09.085Z,9.70
2018-04-21T11:21:09.350Z,8.90
2018-04-21T11:22:09.612Z,8.20
2018-04-21T11:23:09.873Z,9.20
2018-04-21T11:24:10.130Z,9.50
2018-04-21T11:25:10.393Z,9.30
2018-04-21T11:26:10.661Z,9.60
2018-04-21T11:27:10.917Z,10.00
2018-04-21T11:28:11.182Z,9.10
2018-04-21T11:29:11.446Z,9.90
2018-04-21T11:30:11.717Z,10.20
2018-04-21T11:31:11.982Z,10.00
2018-04-21T11:32:12.241Z,10.40
2018-04-21T11:33:12.499Z,10.90
2018-04-21T11:34:12.762Z,11.20
2018-04-21T11:35:13.023Z,11.10
2018-04-21T11:36:13.284Z,10.80
2018-04-21T11:37:13.537Z,10.00
2018-04-21T11:38:13.800Z,10.00
2018-04-21T11:39:14.060Z,10.70
2018-04-21T11:40:14.322Z,9.20
2018-04-21T11:41:14.565Z,10.20
2018-04-21T11:42:14.834Z,10.10
2018-04-21T11:43:15.093Z,10.10
2018-04-21T11:44:15.354Z,10.10
2018-04-21T11:45:15.613Z,10.10
2018-04-21T11:46:15.875Z,10.40
2018-04-21T11:47:16.140Z,10.20
2018-04-21T11:48:16.399Z,11.00
2018-04-21T11:49:16.660Z,10.60
2018-04-21T11:50:16.923Z,10.10
2018-04-21T11:51:17.183Z,9.80
2018-04-21T11:52:17.447Z,9.70
2018-04-21T11:53:17.711Z,9.40
2018-04-21T11:54:17.959Z,9.10
2018-04-21T11:55:18.242Z,9.20
2018-04-21T11:56:18.491Z,9.80
2018-04-21T11:57:18.751Z,9.30
2018-04-21T11:58:19.011Z,7.90
2018-04-21T11:59:19.271Z,7.90
2018-04-21T12:00:19.539Z,8.40
2018-04-21T12:01:19.791Z,8.60
2018-04-21T12:02:20.100Z,8.70
2018-04-21T12:03:20.308Z,8.00
2018-04-21T12:04:20.593Z,7.80
2018-04-21T12:05:20.830Z,7.80
2018-04-21T12:06:21.090Z,7.40
2018-04-21T12:07:21.350Z,8.10
2018-04-21T12:08:21.612Z,8.40
2018-04-21T12:09:21.872Z,8.00
2018-04-21T12:10:22.134Z,8.10
2018-04-21T12:11:22.396Z,8.70
2018-04-21T12:12:22.659Z,8.40
2018-04-21T12:13:22.920Z,9.10
2018-04-21T12:14:23.179Z,8.30
2018-04-21T12:15:23.442Z,9.10
2018-04-21T12:16:23.704Z,9.10
2018-04-21T12:17:23.966Z,8.80
2018-04-21T12:18:24.225Z,8.40
2018-04-21T12:19:24.487Z,9.10
2018-04-21T12:20:24.754Z,8.40
2018-04-21T12:21:25.012Z,7.10
2018-04-21T12:22:25.274Z,8.10
2018-04-21T12:23:25.535Z,7.70
2018-04-21T12:24:25.795Z,8.00
2018-04-21T12:25:26.056Z,7.80
2018-04-21T12:26:26.315Z,7.10
2018-04-21T12:27:26.577Z,6.80
2018-04-21T12:28:26.842Z,7.00
2018-04-21T12:29:27.100Z,6.90
2018-04-21T12:30:27.364Z,7.40
2018-04-21T12:31:27.628Z,7.80
2018-04-21T12:32:27.887Z,7.10
2018-04-21T12:33:28.148Z,7.10
2018-04-21T12:34:28.408Z,8.30
2018-04-21T12:35:28.668Z,7.90
2018-04-21T12:36:28.931Z,8.60
2018-04-21T12:37:29.191Z,8.60
2018-04-21T12:38:29.452Z,8.30
2018-04-21T12:39:29.711Z,8.50
2018-04-21T12:40:29.971Z,9.10
2018-04-21T12:41:30.227Z,9.00
2018-04-21T12:42:30.488Z,13.80
2018-04-21T12:43:30.746Z,8.80
2018-04-21T12:44:31.007Z,9.60
2018-04-21T12:45:31.267Z,9.30
2018-04-21T12:46:31.525Z,8.30
2018-04-21T12:47:31.785Z,8.20
2018-04-21T12:48:32.044Z,8.60
2018-04-21T12:49:32.298Z,7.50
2018-04-21T12:50:32.574Z,7.70
2018-04-21T12:51:32.817Z,7.70
2018-04-21T12:52:33.078Z,7.50
2018-04-21T12:53:33.339Z,7.60
2018-04-21T12:54:33.601Z,7.50
2018-04-21T12:55:33.859Z,7.30
2018-04-21T12:56:34.124Z,8.20
2018-04-21T12:57:34.432Z,7.50
2018-04-21T12:58:34.638Z,7.80